Santo Antonio da Patrulha, Brazil
Current Conditions -  °F | °C
As of 8:29 PM on Saturday 25 Oct 2014 (Local Time) from SBCO Reporting Station
Broken Clouds Broken Clouds  
Wind Chill: 72°   Ceiling: 1300
Heat Index: 72°   Visibility: 6mi
Dew Point: 68°   Wind: 16mph
Humidity: 88%   Direction: 130°SE
Pressure: 29.91"   Gusts: NA
Location:  29.82°S, 50.52°W
Report Text: SBCO 252229Z 13014KT 9999 BKN013 22/20 Q1013
Loading
Personal Weather Stations






























Interactive Weather Map
Tropical Storm Tracking
New forecast layout! Learn more

10-Day Weather Forecast

Advertisements
Track Severe Weather on mobile